Aérodrome :
LOGIN :

S'inscrire | Disclaimer

   EN    FR    IT 

 










Légende :    VFR   VFR Marginal   IFR   IFR Intensif   IFR Très Intensif
Visi : 
Plafond : 
>= 8 km
>= 3000ft
5 à 8 km
1000 à 3000 ft
1500m à 5 km
500 à 1000 ft
800 à 1500m
200 à 500 ft
< 800m
< 200 ft
Symboles :   Orages  Brouillard  Fortes neiges  Fortes précipitations  Vent > 20 kt
SIGMETs :   Divers  Orages  Givrage  Turbulence  Onde Orograph.  Cendres Volcan.







- Altitude de l'aérodrome : 154 ft
- Code IATA : SZZ


EPSC - Szczecin Goleniow

DERNIER METAR :
  • 180230Z 26006KT 9999 FEW030 07/07 Q1014

METARs EXPIRÉS :
  • 180200Z 28008KT 9999 FEW023 SCT031 08/07 Q1014
  • 180130Z 31007KT 270V350 9999 FEW002 SCT011 BKN015 09/08 Q1013
  • 180100Z 26007KT 9999 -SHRA FEW010 BKN025TCU BKN032 08/07 Q1013
  • 180030Z 29015KT 9999 -SHRA FEW003 SCT027TCU BKN032 09/07 Q1012
  • 180000Z 28013KT 9999 -SHRA FEW011 SCT029TCU BKN035 09/07 Q1012

TAF TAF EPSC
Valide du 18 à 00h jusqu'au 19 à 00h UTC


172330Z 1800/1824 28012KT CAVOK
TEMPO 1800/1807 28015G25KT SHRA BKN025CB
TEMPO 1807/1817 28020G32KT
PROB40
TEMPO 1820/1824 SHRA BKN025CB
Pas de NOTAMs connus pour ce terrain.



MET'MAP, la Météo Aéronautique d'un coup d'oeil ! - Copyright ORBIFLY Décembre 2007 - Disclaimer

ORBIFLY MET'MAP TEAM :

Programmation & Développement : Alexandra Zaïnal
Conception & Développement : Baudouin d'Aumeries
Co-Programmation & Développement : Marc-Olivier Méhu
Soutien technique & logistique : Manuel Goepfert

Contact : metmap@orbifly.com




SOURCES & CREDITS :

   NOAA